Time;durP1;ratioP1;P1;durP2;ratioP2;P2;SDS_P1;SDS_P2;PMS_P1;PMS_P2;Temp;Humidity;BMP_temperature;BMP_pressure;BME280_temperature;BME280_humidity;BME280_pressure;Samples;Min_cycle;Max_cycle;Signal;HPM_P1;HPM_P2
2021/11/27 00:01:31;;;;;;;3.70;2.93;;;;;;;1.94;93.12;151864.09;5094292;28;20520;-80
2021/11/27 00:04:08;;;;;;;2.93;2.63;;;;;;;1.95;93.43;151868.00;5095151;28;20442;-79
2021/11/27 00:06:43;;;;;;;3.33;2.93;;;;;;;1.96;91.58;151870.53;5093042;28;20841;-79
2021/11/27 00:09:19;;;;;;;3.07;2.50;;;;;;;1.96;90.81;151870.53;5092217;28;20957;-80
2021/11/27 00:11:55;;;;;;;5.77;3.30;;;;;;;1.94;90.62;151865.41;5094383;28;20531;-80
2021/11/27 00:14:33;;;;;;;4.40;2.90;;;;;;;1.89;94.09;151851.25;5093376;28;20540;-80
2021/11/27 00:17:09;;;;;;;4.60;3.47;;;;;;;1.87;94.67;151846.13;5093540;28;20478;-80
2021/11/27 00:19:46;;;;;;;3.93;2.80;;;;;;;1.82;93.40;151834.56;5095331;28;20410;-80
2021/11/27 00:22:21;;;;;;;4.70;2.50;;;;;;;1.81;92.76;151832.00;5094083;28;20965;-79
2021/11/27 00:24:57;;;;;;;4.70;2.83;;;;;;;1.86;92.46;151844.84;5092441;28;20433;-80
2021/11/27 00:27:32;;;;;;;3.27;2.63;;;;;;;1.82;93.53;151834.56;5093620;28;20827;-80
2021/11/27 00:30:11;;;;;;;4.30;2.53;;;;;;;1.79;91.33;151828.16;5078737;28;20444;-80
2021/11/27 00:32:46;;;;;;;3.73;3.20;;;;;;;1.79;92.01;151826.84;5087126;28;20439;-80
2021/11/27 00:35:24;;;;;;;3.10;2.80;;;;;;;1.77;91.51;151821.72;5076340;28;20489;-80
2021/11/27 00:38:00;;;;;;;3.50;2.90;;;;;;;1.73;90.91;151811.41;5092618;28;20449;-80
2021/11/27 00:40:36;;;;;;;3.90;2.47;;;;;;;1.75;91.60;151816.56;5093673;28;20438;-80
2021/11/27 00:43:13;;;;;;;3.20;2.47;;;;;;;1.74;90.62;151814.00;5077242;28;20539;-80
2021/11/27 00:45:49;;;;;;;3.20;2.77;;;;;;;1.69;92.05;151802.47;5094376;28;20409;-79
2021/11/27 00:48:25;;;;;;;4.60;3.03;;;;;;;1.69;92.31;151801.16;5094057;28;20490;-79
2021/11/27 00:51:06;;;;;;;3.53;2.23;;;;;;;1.75;90.47;151816.56;5092674;28;20460;-80
2021/11/27 00:53:42;;;;;;;4.50;3.00;;;;;;;1.77;91.10;151821.72;5093518;28;20757;-80
2021/11/27 00:56:17;;;;;;;3.97;2.37;;;;;;;1.78;90.21;151824.25;5093649;28;20560;-80
2021/11/27 00:58:53;;;;;;;4.33;2.80;;;;;;;1.77;89.77;151821.72;5092144;28;20445;-80
2021/11/27 01:01:31;;;;;;;3.03;2.50;;;;;;;1.81;89.94;151833.28;5092541;28;20490;-79
2021/11/27 01:04:07;;;;;;;3.20;2.47;;;;;;;1.82;90.38;151835.88;5077767;28;20437;-80
2021/11/27 01:06:43;;;;;;;2.90;2.50;;;;;;;1.83;90.48;151837.13;5093369;28;20449;-80
2021/11/27 01:09:19;;;;;;;5.40;2.90;;;;;;;1.80;92.40;151829.44;5087129;28;20548;-80
2021/11/27 01:11:55;;;;;;;3.40;2.93;;;;;;;1.77;92.05;151822.97;5072746;28;20469;-80
2021/11/27 01:14:32;;;;;;;4.83;3.90;;;;;;;1.81;91.70;151833.28;5084520;28;20452;-80
2021/11/27 01:17:08;;;;;;;4.20;3.40;;;;;;;1.81;93.67;151832.00;5073294;28;20469;-80
2021/11/27 01:19:44;;;;;;;4.30;3.50;;;;;;;1.83;91.60;151838.41;5092839;28;20995;-80
2021/11/27 01:22:22;;;;;;;4.33;2.90;;;;;;;1.83;91.25;151837.13;5096077;28;20548;-80
2021/11/27 01:24:58;;;;;;;3.83;3.03;;;;;;;1.85;91.62;151842.28;5067010;28;20437;-80
2021/11/27 01:27:34;;;;;;;5.57;3.60;;;;;;;1.85;91.92;151842.28;5092977;28;20452;-80
2021/11/27 01:30:11;;;;;;;4.37;3.00;;;;;;;1.80;92.46;151829.44;5060462;28;20472;-80
2021/11/27 01:32:48;;;;;;;4.50;3.40;;;;;;;1.81;91.70;151833.28;5075887;28;20788;-80
2021/11/27 01:35:24;;;;;;;4.10;2.80;;;;;;;1.77;91.49;151822.97;5068406;28;20441;-80
2021/11/27 01:38:01;;;;;;;4.37;3.50;;;;;;;1.85;90.81;151842.28;5077457;28;20445;-79
2021/11/27 01:40:39;;;;;;;4.40;3.50;;;;;;;1.75;90.76;151816.56;5070267;28;20427;-80
2021/11/27 01:43:14;;;;;;;4.80;3.30;;;;;;;1.73;91.29;151811.41;5058690;28;20511;-80
2021/11/27 01:45:51;;;;;;;5.10;3.27;;;;;;;1.70;91.25;151803.69;5076636;28;20437;-80
2021/11/27 01:48:27;;;;;;;6.97;4.60;;;;;;;1.72;91.60;151808.88;5059913;28;20437;-80
2021/11/27 01:51:06;;;;;;;4.00;3.60;;;;;;;1.76;92.22;151819.13;5076861;28;20524;-80
2021/11/27 01:53:45;;;;;;;4.50;3.30;;;;;;;1.68;95.82;151799.88;5074373;28;20463;-79
2021/11/27 01:56:24;;;;;;;4.47;3.70;;;;;;;1.70;94.08;151803.69;5081608;28;20477;-78
2021/11/27 01:59:00;;;;;;;4.97;4.27;;;;;;;1.67;93.83;151795.97;5063589;28;20484;-80
2021/11/27 02:01:36;;;;;;;5.37;4.43;;;;;;;1.66;94.07;151793.44;5043085;28;20450;-80
2021/11/27 02:04:12;;;;;;;5.77;4.13;;;;;;;1.70;93.23;151803.69;5049069;28;20453;-80
2021/11/27 02:06:48;;;;;;;5.17;3.53;;;;;;;1.72;96.45;151808.88;5092883;28;20550;-80
2021/11/27 02:09:27;;;;;;;6.37;5.00;;;;;;;1.77;94.39;151821.72;5075166;28;20476;-80
2021/11/27 02:12:05;;;;;;;5.33;3.80;;;;;;;1.79;94.58;151826.84;5054997;28;20441;-80
2021/11/27 02:14:42;;;;;;;5.70;4.17;;;;;;;1.83;95.61;151838.41;5047587;28;20437;-80
2021/11/27 02:17:23;;;;;;;5.37;3.83;;;;;;;1.82;94.40;151835.88;5054979;28;20469;-80
2021/11/27 02:20:03;;;;;;;5.40;4.30;;;;;;;1.88;93.88;151849.97;5039470;28;20945;-80
2021/11/27 02:22:40;;;;;;;4.87;4.17;;;;;;;1.90;93.88;151855.16;5056742;28;20804;-80
2021/11/27 02:25:20;;;;;;;5.10;3.43;;;;;;;1.93;93.33;151862.88;5076433;28;20823;-80
2021/11/27 02:27:55;;;;;;;5.17;4.53;;;;;;;1.88;93.59;151849.97;5075661;28;20454;-80
2021/11/27 02:30:31;;;;;;;5.70;4.10;;;;;;;1.84;93.26;151841.00;5059709;28;20436;-80
2021/11/27 02:33:06;;;;;;;4.40;3.57;;;;;;;1.85;93.57;151842.28;5076654;28;20457;-80
2021/11/27 02:35:42;;;;;;;5.17;4.30;;;;;;;1.87;93.39;151847.41;5058792;28;20440;-80
2021/11/27 02:38:19;;;;;;;6.13;4.10;;;;;;;1.88;93.52;151849.97;5059069;28;20477;-80
2021/11/27 02:40:54;;;;;;;5.73;4.60;;;;;;;1.92;92.90;151860.28;5075167;28;20444;-80
2021/11/27 02:43:31;;;;;;;5.50;4.50;;;;;;;1.92;92.90;151858.97;5059104;28;20540;-80
2021/11/27 02:46:06;;;;;;;6.70;4.73;;;;;;;1.92;93.02;151858.97;5092533;28;20815;-80
2021/11/27 02:48:42;;;;;;;6.07;4.17;;;;;;;1.94;92.90;151865.41;5073877;28;20871;-80
2021/11/27 02:51:17;;;;;;;5.73;4.40;;;;;;;1.89;93.58;151852.56;5083523;28;20459;-80
2021/11/27 02:53:54;;;;;;;4.90;3.90;;;;;;;1.86;92.97;151844.84;5076334;28;20413;-80
2021/11/27 02:56:31;;;;;;;5.20;3.80;;;;;;;1.83;92.82;151837.13;5058869;28;20575;-80
2021/11/27 02:59:11;;;;;;;5.33;3.80;;;;;;;1.81;93.40;151833.28;5058754;28;20959;-80
2021/11/27 03:01:50;;;;;;;5.40;4.00;;;;;;;1.82;93.54;151834.56;5056263;28;20439;-80
2021/11/27 03:04:33;;;;;;;7.40;4.00;;;;;;;1.82;94.40;151835.88;5047795;28;20905;-80
2021/11/27 03:07:08;;;;;;;4.63;3.80;;;;;;;1.86;93.72;151844.84;5058022;28;20438;-80
2021/11/27 03:09:46;;;;;;;4.60;3.83;;;;;;;1.87;93.93;151846.13;5071143;28;20491;-80
2021/11/27 03:12:21;;;;;;;5.50;3.63;;;;;;;1.97;93.41;151871.81;5059495;28;20974;-80
2021/11/27 03:14:58;;;;;;;5.63;3.83;;;;;;;1.91;93.50;151857.69;5060959;28;20433;-80
2021/11/27 03:17:33;;;;;;;4.40;3.10;;;;;;;1.99;93.84;151878.25;5062854;28;20508;-80
2021/11/27 03:20:11;;;;;;;5.17;3.60;;;;;;;1.96;94.27;151870.53;5062360;28;20935;-79
2021/11/27 03:22:46;;;;;;;5.87;4.10;;;;;;;2.01;94.57;151883.44;5078233;28;20448;-80
2021/11/27 03:25:24;;;;;;;5.00;3.37;;;;;;;1.97;94.86;151873.13;5062636;28;20846;-80
2021/11/27 03:27:59;;;;;;;5.13;3.93;;;;;;;1.98;95.87;151875.72;5062295;28;20807;-80
2021/11/27 03:30:35;;;;;;;5.30;3.37;;;;;;;2.04;95.88;151889.84;5059708;28;20455;-80
2021/11/27 03:33:13;;;;;;;6.20;4.53;;;;;;;2.01;95.94;151882.13;5062181;28;20525;-80
2021/11/27 03:35:49;;;;;;;4.87;3.43;;;;;;;2.07;95.29;151898.81;5077427;28;20815;-80
2021/11/27 03:38:27;;;;;;;4.77;3.10;;;;;;;2.07;95.85;151897.53;5078994;28;20441;-80
2021/11/27 03:41:05;;;;;;;4.60;3.60;;;;;;;2.08;96.35;151901.41;5062827;28;20449;-80
2021/11/27 03:43:43;;;;;;;5.00;3.80;;;;;;;2.07;96.76;151898.81;5079666;28;20421;-80
2021/11/27 03:46:19;;;;;;;4.37;3.67;;;;;;;2.09;98.17;151902.72;5077998;28;20479;-80
2021/11/27 03:48:55;;;;;;;4.23;3.20;;;;;;;2.04;98.74;151891.09;5076823;28;20441;-80
2021/11/27 03:51:58;;;;;;;5.60;3.47;;;;;;;2.03;100.00;151888.56;5081127;28;20445;-80
2021/11/27 03:54:39;;;;;;;4.23;3.03;;;;;;;2.03;100.00;151888.56;5062640;28;20536;-80
2021/11/27 03:57:16;;;;;;;3.53;2.90;;;;;;;2.06;100.00;151895.00;5062715;28;20480;-80
2021/11/27 03:59:52;;;;;;;4.10;2.50;;;;;;;2.13;100.00;151912.97;5061463;28;20461;-80
2021/11/27 04:02:28;;;;;;;4.20;3.73;;;;;;;2.03;100.00;151888.56;5079522;28;20442;-80
2021/11/27 04:05:04;;;;;;;3.73;3.13;;;;;;;1.96;100.00;151869.28;5061973;28;20445;-80
2021/11/27 04:07:40;;;;;;;3.80;3.30;;;;;;;1.93;100.00;151862.88;5083311;28;20921;-80
2021/11/27 04:10:16;;;;;;;4.60;2.90;;;;;;;1.90;100.00;151855.16;5062100;28;20482;-80
2021/11/27 04:12:54;;;;;;;4.10;3.37;;;;;;;1.96;100.00;151870.53;5062437;28;20445;-80
2021/11/27 04:15:30;;;;;;;3.60;2.93;;;;;;;1.98;100.00;151875.72;5077498;28;20773;-80
2021/11/27 04:18:05;;;;;;;4.03;2.93;;;;;;;1.96;100.00;151869.28;5053713;28;20513;-80
2021/11/27 04:20:41;;;;;;;6.90;3.23;;;;;;;1.93;100.00;151862.88;5082588;28;20487;-80
2021/11/27 04:23:17;;;;;;;3.53;2.73;;;;;;;1.95;100.00;151868.00;5099302;28;20978;-80
2021/11/27 04:25:53;;;;;;;3.57;2.40;;;;;;;1.98;100.00;151875.72;5098359;27;20830;-79
2021/11/27 04:28:30;;;;;;;4.13;2.67;;;;;;;1.98;100.00;151875.72;5093047;28;20456;-80
2021/11/27 04:31:06;;;;;;;3.33;3.00;;;;;;;1.98;100.00;151875.72;5076560;28;20448;-80
2021/11/27 04:33:42;;;;;;;3.20;2.60;;;;;;;1.94;100.00;151865.41;5094427;28;20536;-80
2021/11/27 04:36:17;;;;;;;4.63;2.33;;;;;;;1.95;100.00;151868.00;5094247;28;20429;-80
2021/11/27 04:38:53;;;;;;;2.47;2.10;;;;;;;1.99;100.00;151876.97;5081238;28;20449;-80
2021/11/27 04:41:32;;;;;;;3.67;2.00;;;;;;;2.02;100.00;151885.97;5093439;28;20856;-80
2021/11/27 04:44:09;;;;;;;2.30;1.90;;;;;;;2.00;100.00;151880.84;5095019;28;20492;-80
2021/11/27 04:46:44;;;;;;;2.13;1.83;;;;;;;2.02;100.00;151885.97;5077977;28;20441;-80
2021/11/27 04:49:20;;;;;;;2.37;2.10;;;;;;;2.03;100.00;151888.56;5094893;28;20445;-80
2021/11/27 04:51:56;;;;;;;2.97;2.30;;;;;;;2.05;100.00;151892.41;5077342;28;20478;-80
2021/11/27 04:54:31;;;;;;;2.37;1.70;;;;;;;2.08;100.00;151901.41;5093794;28;20445;-80
2021/11/27 04:57:07;;;;;;;2.50;1.90;;;;;;;2.13;100.00;151914.25;5078026;28;20475;-80
2021/11/27 04:59:44;;;;;;;3.23;2.40;;;;;;;2.12;100.00;151911.69;5077277;28;20441;-80
2021/11/27 05:02:20;;;;;;;2.40;2.17;;;;;;;2.17;100.00;151924.53;5093002;28;20546;-80
2021/11/27 05:04:56;;;;;;;2.30;1.90;;;;;;;2.12;100.00;151911.69;5093231;28;20971;-80
2021/11/27 05:07:32;;;;;;;2.90;1.83;;;;;;;2.12;100.00;151911.69;5077839;28;20511;-80
2021/11/27 05:10:10;;;;;;;4.53;3.00;;;;;;;2.14;100.00;151915.56;5095469;28;20472;-80
2021/11/27 05:12:46;;;;;;;3.10;1.87;;;;;;;2.15;100.00;151918.09;5093170;28;20869;-80
2021/11/27 05:15:23;;;;;;;2.60;1.60;;;;;;;2.14;100.00;151916.84;5093261;28;20456;-80
2021/11/27 05:18:03;;;;;;;2.83;1.67;;;;;;;2.15;100.00;151919.41;5093335;28;20467;-80
2021/11/27 05:21:05;;;;;;;3.10;2.57;;;;;;;2.17;100.00;151923.28;5093684;28;20816;-80
2021/11/27 05:23:41;;;;;;;2.30;2.10;;;;;;;2.19;100.00;151929.72;5072955;28;20492;-81
2021/11/27 05:26:34;;;;;;;4.73;3.20;;;;;;;2.21;100.00;151933.53;5040485;28;20446;-80
2021/11/27 05:29:36;;;;;;;3.10;1.90;;;;;;;2.18;100.00;151927.13;5092043;28;20435;-80
2021/11/27 05:32:38;;;;;;;1.80;1.57;;;;;;;2.17;100.00;151923.28;5079371;28;20454;-80
2021/11/27 05:35:15;;;;;;;2.10;1.57;;;;;;;2.13;100.00;151912.97;5079241;28;20435;-80
2021/11/27 05:37:50;;;;;;;1.90;1.40;;;;;;;2.12;100.00;151910.44;5059609;28;20526;-80
2021/11/27 05:40:26;;;;;;;1.90;1.20;;;;;;;2.18;100.00;151925.81;5074826;28;20425;-80
2021/11/27 05:43:02;;;;;;;1.50;1.10;;;;;;;2.15;100.00;151919.41;5074752;28;20480;-80
2021/11/27 05:45:37;;;;;;;1.63;1.13;;;;;;;2.14;100.00;151915.56;5074136;28;20466;-80
2021/11/27 05:48:14;;;;;;;1.97;1.40;;;;;;;2.16;100.00;151921.97;5055048;28;20787;-80
2021/11/27 05:51:13;;;;;;;1.30;0.87;;;;;;;2.14;100.00;151915.56;5076267;28;20441;-80
2021/11/27 05:53:49;;;;;;;1.70;1.40;;;;;;;2.12;100.00;151911.69;5064824;28;20450;-80
2021/11/27 05:56:26;;;;;;;2.20;1.33;;;;;;;2.12;100.00;151911.69;5089003;28;20441;-80
2021/11/27 05:59:02;;;;;;;2.33;1.37;;;;;;;2.16;100.00;151920.69;5093165;28;20540;-80
2021/11/27 06:01:37;;;;;;;2.77;1.80;;;;;;;2.16;100.00;151921.97;5093180;28;20430;-80
2021/11/27 06:04:14;;;;;;;4.07;1.40;;;;;;;2.15;100.00;151919.41;5092288;28;20445;-80
2021/11/27 06:06:50;;;;;;;1.93;1.50;;;;;;;2.10;100.00;151906.53;5090377;28;20815;-80
2021/11/27 06:09:25;;;;;;;2.33;1.60;;;;;;;2.12;100.00;151911.69;5090732;28;20447;-80
2021/11/27 06:12:00;;;;;;;2.37;1.40;;;;;;;2.14;100.00;151916.84;5093323;28;20457;-80
2021/11/27 06:14:37;;;;;;;1.30;1.07;;;;;;;2.16;100.00;151920.69;5075251;28;20839;-80
2021/11/27 06:17:12;;;;;;;2.20;1.70;;;;;;;2.14;100.00;151916.84;5074622;28;20469;-80
2021/11/27 06:19:49;;;;;;;2.60;1.40;;;;;;;2.12;100.00;151911.69;5092581;28;20426;-80
2021/11/27 06:22:25;;;;;;;2.00;1.27;;;;;;;2.10;100.00;151906.53;5083609;28;20462;-79
2021/11/27 06:25:01;;;;;;;2.17;1.50;;;;;;;2.10;100.00;151905.25;5090404;28;20512;-80
2021/11/27 06:27:38;;;;;;;2.00;1.40;;;;;;;2.13;100.00;151914.25;5089455;28;20449;-80
2021/11/27 06:30:14;;;;;;;2.00;1.43;;;;;;;2.14;100.00;151916.84;5076647;28;20434;-80
2021/11/27 06:32:50;;;;;;;2.60;1.20;;;;;;;2.13;100.00;151914.25;5081762;28;20444;-80
2021/11/27 06:35:26;;;;;;;2.10;1.40;;;;;;;2.17;100.00;151923.28;5091690;28;20931;-80
2021/11/27 06:38:02;;;;;;;1.63;1.07;;;;;;;2.12;100.00;151911.69;5090325;28;20463;-80
2021/11/27 06:40:38;;;;;;;2.40;1.63;;;;;;;2.11;100.00;151907.84;5092204;28;20872;-80
2021/11/27 06:43:34;;;;;;;2.20;1.80;;;;;;;2.16;100.00;151921.97;5089288;28;20455;-80
2021/11/27 06:46:17;;;;;;;2.20;1.43;;;;;;;2.12;100.00;151911.69;5091956;28;20453;-80
2021/11/27 06:48:52;;;;;;;2.70;1.30;;;;;;;2.14;100.00;151915.56;5091960;28;20425;-80
2021/11/27 06:51:29;;;;;;;2.20;1.30;;;;;;;2.15;100.00;151919.41;5096202;28;20437;-80
2021/11/27 06:54:05;;;;;;;2.57;1.43;;;;;;;2.16;100.00;151920.69;5095622;28;20473;-80
2021/11/27 06:56:40;;;;;;;2.50;1.53;;;;;;;2.14;100.00;151916.84;5068612;28;20941;-80
2021/11/27 06:59:16;;;;;;;1.70;1.30;;;;;;;2.14;100.00;151915.56;5095312;28;20434;-80
2021/11/27 07:02:30;;;;;;;1.80;1.20;;;;;;;2.17;100.00;151924.53;5074435;28;20457;-80
2021/11/27 07:05:24;;;;;;;1.97;1.00;;;;;;;2.20;100.00;151932.25;5095133;28;20437;-80
2021/11/27 07:08:07;;;;;;;1.67;1.30;;;;;;;2.21;100.00;151933.53;5095605;28;20468;-80
2021/11/27 07:10:51;;;;;;;1.40;1.30;;;;;;;2.16;100.00;151921.97;5069902;28;20457;-80
2021/11/27 07:13:32;;;;;;;1.73;1.13;;;;;;;2.20;100.00;151932.25;5071990;28;20423;-80
2021/11/27 07:16:08;;;;;;;2.73;1.40;;;;;;;2.20;100.00;151932.25;5094085;28;20445;-80
2021/11/27 07:18:43;;;;;;;1.40;1.20;;;;;;;2.21;100.00;151934.84;5089045;28;20454;-80
2021/11/27 07:21:18;;;;;;;2.20;1.30;;;;;;;2.21;100.00;151933.53;5078797;28;20472;-80
2021/11/27 07:23:55;;;;;;;2.00;1.50;;;;;;;2.22;100.00;151936.13;5101820;28;20429;-80
2021/11/27 07:26:31;;;;;;;1.60;1.30;;;;;;;2.25;100.00;151945.09;5096584;28;20462;-80
2021/11/27 07:29:15;;;;;;;2.13;1.70;;;;;;;2.24;100.00;151941.25;5077775;28;20437;-80
2021/11/27 07:31:56;;;;;;;1.90;1.40;;;;;;;2.24;100.00;151942.56;5076428;28;20444;-80
2021/11/27 07:34:31;;;;;;;2.33;1.37;;;;;;;2.28;100.00;151952.81;5092655;28;20449;-80
2021/11/27 07:37:07;;;;;;;2.33;1.63;;;;;;;2.25;100.00;151945.09;5093348;28;20502;-80
2021/11/27 07:39:44;;;;;;;2.07;1.60;;;;;;;2.31;100.00;151960.53;5095415;28;20446;-80
2021/11/27 07:42:19;;;;;;;1.43;1.33;;;;;;;2.30;100.00;151957.94;5095233;28;20449;-80
2021/11/27 07:45:16;;;;;;;1.57;1.17;;;;;;;2.33;100.00;151965.66;5094865;28;20820;-80
2021/11/27 07:47:51;;;;;;;1.60;1.33;;;;;;;2.37;100.00;151974.69;5073700;28;20441;-80
2021/11/27 07:50:47;;;;;;;1.80;1.37;;;;;;;2.39;100.00;151981.13;5072880;28;20443;-80
2021/11/27 07:53:31;;;;;;;1.77;1.30;;;;;;;2.37;100.00;151976.00;5077448;28;21018;-80
2021/11/27 07:56:07;;;;;;;2.17;1.10;;;;;;;2.37;100.00;151974.69;5089605;28;20532;-80
2021/11/27 07:58:43;;;;;;;1.37;1.27;;;;;;;2.39;100.00;151979.81;5089086;28;20557;-80
2021/11/27 08:01:18;;;;;;;1.83;1.40;;;;;;;2.41;100.00;151984.97;5094650;28;20450;-80
2021/11/27 08:03:54;;;;;;;2.40;1.40;;;;;;;2.42;100.00;151988.84;5072012;28;20466;-79
2021/11/27 08:06:30;;;;;;;4.27;1.30;;;;;;;2.48;100.00;152003.00;5085032;28;20452;-80
2021/11/27 08:09:05;;;;;;;1.90;1.10;;;;;;;2.50;100.00;152006.84;5091069;28;20439;-80
2021/11/27 08:11:42;;;;;;;2.10;1.60;;;;;;;2.54;100.00;152017.16;5090886;28;20450;-80
2021/11/27 08:14:18;;;;;;;2.10;1.53;;;;;;;2.62;100.00;152037.72;5078965;28;20450;-80
2021/11/27 08:16:53;;;;;;;1.50;1.00;;;;;;;2.70;100.00;152058.31;5091616;28;20454;-81
2021/11/27 08:19:29;;;;;;;2.10;1.50;;;;;;;2.73;100.00;152067.28;5089517;28;20471;-80
2021/11/27 08:22:05;;;;;;;1.97;1.27;;;;;;;2.74;100.00;152069.88;5085461;28;20837;-80
2021/11/27 08:24:41;;;;;;;2.03;1.57;;;;;;;2.73;100.00;152065.97;5084341;28;20537;-80
2021/11/27 08:27:19;;;;;;;1.60;1.43;;;;;;;2.72;100.00;152063.44;5092699;28;20460;-80
2021/11/27 08:29:55;;;;;;;2.90;1.10;;;;;;;2.71;100.00;152060.84;5091631;28;20823;-80
2021/11/27 08:32:30;;;;;;;1.93;1.57;;;;;;;2.76;100.00;152073.72;5088623;28;20546;-80
2021/11/27 08:35:06;;;;;;;2.07;1.67;;;;;;;2.79;100.00;152082.72;5092516;28;20472;-82
2021/11/27 08:37:43;;;;;;;2.40;2.00;;;;;;;2.80;100.00;152084.03;5065780;28;20974;-80
2021/11/27 08:40:19;;;;;;;1.53;1.30;;;;;;;2.80;100.00;152084.03;5083055;28;20518;-79
2021/11/27 08:42:58;;;;;;;1.67;1.23;;;;;;;2.80;100.00;152084.03;5090821;28;20510;-79
2021/11/27 08:45:39;;;;;;;2.10;1.40;;;;;;;2.80;100.00;152085.31;5093397;28;20981;-81
2021/11/27 08:48:14;;;;;;;2.93;1.07;;;;;;;2.84;100.00;152094.28;5093739;28;20526;-79
2021/11/27 08:50:50;;;;;;;2.03;1.33;;;;;;;2.90;100.00;152109.75;5091846;28;20443;-80
2021/11/27 08:53:25;;;;;;;2.00;1.33;;;;;;;2.97;100.00;152127.75;5076806;28;20803;-79
2021/11/27 08:56:01;;;;;;;1.60;1.47;;;;;;;3.07;100.00;152153.50;5092143;28;20456;-80
2021/11/27 08:58:40;;;;;;;2.60;1.50;;;;;;;3.11;100.00;152163.78;5084855;28;20475;-80
2021/11/27 09:01:16;;;;;;;1.43;1.27;;;;;;;3.21;100.00;152189.50;5073168;28;20482;-80
2021/11/27 09:03:51;;;;;;;1.93;1.60;;;;;;;3.23;100.00;152194.63;5091130;28;20502;-80
2021/11/27 09:06:27;;;;;;;2.10;1.90;;;;;;;3.25;100.00;152199.81;5094314;28;20828;-80
2021/11/27 09:09:05;;;;;;;2.03;1.57;;;;;;;3.33;100.00;152220.41;5091633;28;20439;-80
2021/11/27 09:11:41;;;;;;;1.50;1.30;;;;;;;3.35;100.00;152225.56;5091647;28;20451;-80
2021/11/27 09:14:18;;;;;;;2.93;1.70;;;;;;;3.38;100.00;152232.00;5092871;28;20456;-80
2021/11/27 09:16:54;;;;;;;1.80;1.40;;;;;;;3.45;100.00;152251.28;5092713;28;20861;-80
2021/11/27 09:19:29;;;;;;;1.90;1.47;;;;;;;3.52;100.00;152269.28;5078341;28;21003;-80
2021/11/27 09:22:05;;;;;;;2.00;1.60;;;;;;;3.57;100.00;152282.16;5106217;28;20477;-80
2021/11/27 09:24:40;;;;;;;2.67;2.27;;;;;;;3.61;100.00;152292.47;5095060;28;20454;-80
2021/11/27 09:27:16;;;;;;;1.70;1.50;;;;;;;3.66;100.00;152304.06;5094086;28;20461;-80
2021/11/27 09:29:53;;;;;;;2.50;1.10;;;;;;;3.71;100.00;152315.69;5093415;28;20462;-80
2021/11/27 09:32:30;;;;;;;4.10;2.10;;;;;;;3.73;100.00;152320.81;5093603;28;20451;-80
2021/11/27 09:35:07;;;;;;;1.90;1.70;;;;;;;3.81;100.00;152342.72;5092378;28;20446;-80
2021/11/27 09:37:42;;;;;;;2.77;1.60;;;;;;;3.86;100.00;152354.28;5113490;28;20438;-80
2021/11/27 09:40:19;;;;;;;1.73;1.07;;;;;;;3.89;100.00;152363.25;5113831;28;20423;-80
2021/11/27 09:42:55;;;;;;;1.73;1.10;;;;;;;3.97;100.00;152382.63;5111848;28;20914;-80
2021/11/27 09:45:33;;;;;;;2.57;1.30;;;;;;;3.97;100.00;152382.63;5104089;28;20448;-79
2021/11/27 09:48:09;;;;;;;2.00;1.30;;;;;;;4.08;100.00;152410.91;5083501;28;20482;-79
2021/11/27 09:50:45;;;;;;;2.03;1.10;;;;;;;4.12;100.00;152421.25;5085936;28;20444;-78
2021/11/27 09:53:22;;;;;;;1.40;1.03;;;;;;;4.10;100.00;152416.09;5087959;28;20458;-80
2021/11/27 09:56:01;;;;;;;2.03;1.20;;;;;;;4.14;100.00;152426.38;5095321;28;20432;-79
2021/11/27 09:58:55;;;;;;;2.80;0.77;;;;;;;4.10;100.00;152417.34;5094603;28;20858;-79
2021/11/27 10:01:34;;;;;;;1.27;0.80;;;;;;;4.10;100.00;152416.09;5089484;28;20533;-79
2021/11/27 10:04:09;;;;;;;1.10;0.67;;;;;;;4.11;100.00;152418.66;5112124;28;21012;-79
2021/11/27 10:06:46;;;;;;;1.83;1.23;;;;;;;4.06;100.00;152407.06;5079519;28;20459;-79
2021/11/27 10:09:23;;;;;;;1.33;1.17;;;;;;;4.11;100.00;152419.94;5077757;28;20448;-80
2021/11/27 10:12:00;;;;;;;1.23;0.80;;;;;;;4.17;100.00;152434.13;5083544;28;20476;-80
2021/11/27 10:14:39;;;;;;;1.67;1.10;;;;;;;4.21;100.00;152444.41;5091115;28;20468;-80
2021/11/27 10:17:18;;;;;;;1.07;0.80;;;;;;;4.25;100.00;152454.72;5093676;28;20456;-80
2021/11/27 10:19:57;;;;;;;2.50;1.33;;;;;;;4.29;100.00;152465.00;5092209;28;20958;-80
2021/11/27 10:22:47;;;;;;;2.10;1.50;;;;;;;4.23;100.00;152449.59;5076852;28;20469;-79
2021/11/27 10:25:29;;;;;;;1.57;1.10;;;;;;;4.22;100.00;152447.00;5076815;28;20441;-80
2021/11/27 10:28:10;;;;;;;1.30;1.10;;;;;;;4.20;100.00;152443.16;5091368;28;20838;-80
2021/11/27 10:30:53;;;;;;;2.10;1.10;;;;;;;4.16;100.00;152432.81;5084478;28;20457;-80
2021/11/27 10:33:30;;;;;;;2.40;1.20;;;;;;;4.26;100.00;152457.31;5090871;28;20437;-79
2021/11/27 10:36:09;;;;;;;1.90;1.10;;;;;;;4.27;100.00;152461.16;5087277;28;20440;-80
2021/11/27 10:38:46;;;;;;;1.57;1.20;;;;;;;4.29;99.74;152465.00;5075195;28;20476;-80
2021/11/27 10:41:22;;;;;;;1.23;0.90;;;;;;;4.33;99.42;152475.34;5092677;28;20437;-79
2021/11/27 10:44:00;;;;;;;2.27;1.40;;;;;;;4.36;100.00;152483.06;5075771;28;20445;-80
2021/11/27 10:46:37;;;;;;;1.80;1.40;;;;;;;4.39;99.89;152490.81;5090875;28;20460;-79
2021/11/27 10:49:25;;;;;;;9.13;1.30;;;;;;;4.44;98.35;152503.69;5089908;28;20835;-79
2021/11/27 10:52:06;;;;;;;1.90;1.20;;;;;;;4.48;98.45;152512.66;5093066;28;20440;-80
2021/11/27 10:54:49;;;;;;;2.00;1.27;;;;;;;4.53;98.19;152525.53;5070869;28;20438;-80
2021/11/27 10:57:31;;;;;;;3.53;1.53;;;;;;;4.54;97.30;152529.44;5089154;28;20535;-80
2021/11/27 11:00:08;;;;;;;2.20;1.43;;;;;;;4.58;97.15;152539.72;5086579;28;20848;-80
2021/11/27 11:02:44;;;;;;;1.90;1.20;;;;;;;4.53;96.69;152526.84;5070653;28;20945;-79
2021/11/27 11:05:21;;;;;;;1.80;1.30;;;;;;;4.49;97.28;152515.25;5078697;28;20526;-80
2021/11/27 11:07:58;;;;;;;3.10;1.27;;;;;;;4.53;95.83;152525.53;5090615;28;20479;-79
2021/11/27 11:10:34;;;;;;;2.30;1.60;;;;;;;4.56;97.29;152534.59;5071318;28;20495;-80
2021/11/27 11:13:11;;;;;;;1.57;1.30;;;;;;;4.55;96.00;152532.03;5084366;28;20456;-80
2021/11/27 11:15:48;;;;;;;1.73;1.40;;;;;;;4.53;95.19;152526.84;5076657;28;20495;-80
2021/11/27 11:18:28;;;;;;;2.17;1.33;;;;;;;4.55;94.52;152530.72;5090264;28;20512;-79
2021/11/27 11:21:06;;;;;;;1.63;0.93;;;;;;;4.53;94.48;152526.84;5054012;28;20982;-79
2021/11/27 11:23:43;;;;;;;1.50;1.17;;;;;;;4.47;95.85;152511.41;5082564;28;20456;-79
2021/11/27 11:26:21;;;;;;;1.87;1.10;;;;;;;4.43;94.79;152501.09;5090135;28;20935;-80
2021/11/27 11:28:57;;;;;;;2.80;1.17;;;;;;;4.42;95.74;152498.50;5070246;28;20434;-80
2021/11/27 11:31:35;;;;;;;1.20;0.90;;;;;;;4.40;95.33;152493.34;5089774;28;20547;-80
2021/11/27 11:34:10;;;;;;;1.67;1.13;;;;;;;4.39;95.19;152489.50;5081886;28;20451;-80
2021/11/27 11:36:47;;;;;;;2.37;1.20;;;;;;;4.43;95.51;152501.09;5093491;28;20448;-80
2021/11/27 11:39:23;;;;;;;1.50;1.20;;;;;;;4.40;95.04;152493.34;5093606;28;20505;-80
2021/11/27 11:41:58;;;;;;;1.20;1.10;;;;;;;4.42;95.78;152498.50;5084602;28;20449;-80
2021/11/27 11:44:34;;;;;;;1.53;1.30;;;;;;;4.40;96.04;152492.06;5093637;28;20440;-80
2021/11/27 11:47:11;;;;;;;3.33;1.40;;;;;;;4.46;94.58;152508.81;5084439;28;20456;-80
2021/11/27 11:49:52;;;;;;;2.33;1.37;;;;;;;4.49;95.63;152516.56;5091839;28;20437;-79
2021/11/27 11:52:35;;;;;;;2.77;1.70;;;;;;;4.50;97.27;152519.09;5082111;28;20448;-80
2021/11/27 11:55:13;;;;;;;1.57;1.40;;;;;;;4.58;95.37;152538.47;5084552;28;20436;-80
2021/11/27 11:57:50;;;;;;;1.73;1.10;;;;;;;4.58;97.18;152539.72;5081625;28;20452;-80
2021/11/27 12:00:27;;;;;;;2.27;1.67;;;;;;;4.62;95.91;152550.06;5067530;28;20465;-80
2021/11/27 12:03:07;;;;;;;2.10;1.50;;;;;;;4.69;95.09;152566.78;5069863;28;20489;-79
2021/11/27 12:06:02;;;;;;;1.97;1.43;;;;;;;4.65;96.24;152556.50;5084500;28;20856;-80
2021/11/27 12:08:59;;;;;;;2.60;1.60;;;;;;;4.62;96.21;152548.75;5074542;28;20418;-80
2021/11/27 12:12:20;;;;;;;1.90;1.53;;;;;;;4.59;96.18;152542.31;5073692;28;20457;-80
2021/11/27 12:15:00;;;;;;;2.37;1.37;;;;;;;4.64;96.22;152555.19;5093807;28;20472;-79
2021/11/27 12:18:03;;;;;;;1.90;1.60;;;;;;;4.65;97.40;152556.50;5087791;28;20453;-80
2021/11/27 12:20:44;;;;;;;2.80;1.17;;;;;;;4.67;96.51;152561.63;5077743;28;20574;-79